createdAt,value
2017-06-27T00:00:36.153Z,0
2017-06-27T00:01:46.081Z,0
2017-06-27T00:02:55.989Z,0
2017-06-27T00:04:06.216Z,0
2017-06-27T00:05:16.434Z,0
2017-06-27T00:06:26.353Z,0
2017-06-27T00:07:36.259Z,0
2017-06-27T00:08:45.862Z,0
2017-06-27T00:09:55.773Z,0
2017-06-27T00:11:05.982Z,0
2017-06-27T00:12:15.887Z,0
2017-06-27T00:13:25.804Z,0
2017-06-27T00:14:35.744Z,0
2017-06-27T00:15:45.346Z,0
2017-06-27T00:16:55.288Z,0
2017-06-27T00:18:05.194Z,0
2017-06-27T00:19:15.128Z,0
2017-06-27T00:20:25.028Z,0
2017-06-27T00:21:34.934Z,0
2017-06-27T00:22:44.226Z,0
2017-06-27T00:23:54.166Z,0
2017-06-27T00:25:03.824Z,0
2017-06-27T00:26:14.119Z,0
2017-06-27T00:27:24.341Z,0
2017-06-27T00:28:34.560Z,0
2017-06-27T00:29:43.844Z,0
2017-06-27T00:30:53.135Z,0
2017-06-27T00:32:02.730Z,0
2017-06-27T00:33:12.024Z,0
2017-06-27T00:34:21.923Z,0
2017-06-27T00:35:31.220Z,0
2017-06-27T00:36:41.433Z,0
2017-06-27T00:37:51.647Z,0
2017-06-27T00:39:01.556Z,0
2017-06-27T00:40:11.779Z,0
2017-06-27T00:41:21.678Z,0
2017-06-27T00:42:31.580Z,0
2017-06-27T00:43:41.206Z,0
2017-06-27T00:44:50.827Z,0
2017-06-27T00:46:00.734Z,0
2017-06-27T00:47:10.642Z,0
2017-06-27T00:48:20.862Z,0
2017-06-27T00:49:31.097Z,0
2017-06-27T00:57:37.700Z,0
2017-06-27T00:58:47.296Z,0
2017-06-27T00:59:57.200Z,0
2017-06-27T01:01:07.102Z,0
2017-06-27T01:02:17.034Z,0
2017-06-27T01:03:26.971Z,0
2017-06-27T01:04:37.183Z,0
2017-06-27T01:05:47.085Z,0
2017-06-27T01:06:56.999Z,0
2017-06-27T01:08:06.901Z,0
2017-06-27T01:09:17.172Z,0
2017-06-27T01:10:27.074Z,0
2017-06-27T01:11:37.278Z,0
2017-06-27T01:12:47.177Z,0
2017-06-27T01:13:57.082Z,0
2017-06-27T01:15:06.674Z,0
2017-06-27T01:16:16.598Z,0
2017-06-27T01:17:26.502Z,0
2017-06-27T01:18:36.097Z,0
2017-06-27T01:19:46.021Z,0
2017-06-27T01:20:56.093Z,0
2017-06-27T01:22:05.996Z,0
2017-06-27T01:23:16.213Z,0
2017-06-27T01:24:25.813Z,0
2017-06-27T01:25:35.714Z,0
2017-06-27T01:26:45.923Z,0
2017-06-27T01:27:55.204Z,0
2017-06-27T01:29:05.410Z,0
2017-06-27T01:30:15.317Z,0
2017-06-27T01:31:25.540Z,0
2017-06-27T01:32:35.429Z,0
2017-06-27T01:33:45.336Z,0
2017-06-27T01:34:54.935Z,0
2017-06-27T01:36:04.841Z,0
2017-06-27T01:37:15.056Z,0
2017-06-27T01:38:24.946Z,0
2017-06-27T01:39:34.852Z,0
2017-06-27T01:40:44.137Z,0
2017-06-27T01:41:54.048Z,0
2017-06-27T01:43:03.334Z,0
2017-06-27T01:44:12.995Z,0
2017-06-27T01:45:23.192Z,0
2017-06-27T01:46:32.790Z,0
2017-06-27T01:47:42.686Z,0
2017-06-27T01:48:52.588Z,0
2017-06-27T01:50:02.807Z,0
2017-06-27T01:51:13.012Z,0
2017-06-27T01:52:23.221Z,0
2017-06-27T01:53:32.829Z,0
2017-06-27T01:54:42.131Z,0
2017-06-27T01:55:52.041Z,0
2017-06-27T01:57:02.237Z,0
2017-06-27T01:58:12.433Z,0
2017-06-27T01:59:22.329Z,0
2017-06-27T02:00:32.238Z,0
2017-06-27T02:01:42.153Z,0
2017-06-27T02:02:51.782Z,0
2017-06-27T02:04:01.996Z,0
2017-06-27T02:05:12.204Z,0
2017-06-27T02:06:22.140Z,0
2017-06-27T02:07:32.508Z,0
2017-06-27T02:08:42.112Z,0
2017-06-27T02:09:52.313Z,0
2017-06-27T02:11:01.903Z,0
2017-06-27T02:12:12.107Z,0
2017-06-27T02:13:22.025Z,0
2017-06-27T02:14:31.932Z,0
2017-06-27T02:15:41.838Z,0
2017-06-27T02:16:52.406Z,0
2017-06-27T02:18:02.302Z,0
2017-06-27T02:19:12.520Z,0
2017-06-27T02:20:22.427Z,0
2017-06-27T02:21:32.339Z,0
2017-06-27T02:22:42.574Z,0
2017-06-27T02:23:51.857Z,0
2017-06-27T02:25:01.781Z,0
2017-06-27T02:26:12.005Z,0
2017-06-27T02:27:21.916Z,0
2017-06-27T02:28:31.812Z,0
2017-06-27T02:29:41.737Z,0
2017-06-27T02:30:51.652Z,0
2017-06-27T02:32:01.590Z,0
2017-06-27T02:33:11.505Z,0
2017-06-27T02:34:21.707Z,0
2017-06-27T02:35:31.904Z,0
2017-06-27T02:36:41.508Z,0
2017-06-27T02:37:50.823Z,0
2017-06-27T02:39:00.756Z,0
2017-06-27T02:40:10.985Z,0
2017-06-27T02:41:20.920Z,0
2017-06-27T02:42:30.533Z,0
2017-06-27T02:43:40.456Z,0
2017-06-27T02:44:50.375Z,0
2017-06-27T02:46:00.584Z,0
2017-06-27T02:47:10.488Z,0
2017-06-27T02:48:20.251Z,0
2017-06-27T02:49:30.153Z,0
2017-06-27T02:50:40.380Z,0
2017-06-27T02:51:50.609Z,0
2017-06-27T02:53:00.537Z,0
2017-06-27T02:54:10.435Z,0
2017-06-27T02:55:20.335Z,0
2017-06-27T02:56:30.234Z,0
2017-06-27T02:57:40.446Z,0
2017-06-27T02:58:50.676Z,0
2017-06-27T03:00:00.270Z,0
2017-06-27T03:01:10.176Z,0
2017-06-27T03:02:19.796Z,0
2017-06-27T03:03:29.944Z,0
2017-06-27T03:04:39.895Z,0
2017-06-27T03:05:49.506Z,0
2017-06-27T03:06:59.408Z,0
2017-06-27T03:08:09.322Z,0
2017-06-27T03:09:19.539Z,0
2017-06-27T03:10:29.148Z,0
2017-06-27T03:11:39.055Z,0
2017-06-27T03:12:49.262Z,0
2017-06-27T03:13:58.852Z,0
2017-06-27T03:15:09.068Z,0
2017-06-27T03:16:19.289Z,0
2017-06-27T03:17:29.493Z,0
2017-06-27T03:18:39.091Z,0
2017-06-27T03:19:48.378Z,0
2017-06-27T03:20:57.992Z,0
2017-06-27T03:22:07.910Z,0
2017-06-27T03:23:18.158Z,0
2017-06-27T03:24:28.374Z,0
2017-06-27T03:25:37.982Z,0
2017-06-27T03:26:47.282Z,0
2017-06-27T03:27:57.509Z,0
2017-06-27T03:29:07.725Z,0
2017-06-27T03:30:17.333Z,0
2017-06-27T03:31:27.244Z,0
2017-06-27T03:32:37.477Z,0
2017-06-27T03:33:47.065Z,0
2017-06-27T03:34:56.971Z,0
2017-06-27T03:36:06.876Z,0
2017-06-27T03:37:17.096Z,0
2017-06-27T03:38:26.623Z,0
2017-06-27T03:39:36.538Z,0
2017-06-27T03:40:46.464Z,0
2017-06-27T03:41:56.064Z,0
2017-06-27T03:43:05.979Z,0
2017-06-27T03:44:15.270Z,0
2017-06-27T03:45:25.478Z,0
2017-06-27T03:46:35.698Z,0
2017-06-27T03:47:45.292Z,0
2017-06-27T03:48:55.212Z,0
2017-06-27T03:50:05.128Z,0
2017-06-27T03:51:15.032Z,0
2017-06-27T03:52:24.939Z,0
2017-06-27T03:53:34.842Z,0
2017-06-27T03:54:44.769Z,0
2017-06-27T03:55:54.378Z,0
2017-06-27T03:57:04.281Z,0
2017-06-27T03:58:14.217Z,0
2017-06-27T03:59:24.128Z,0
2017-06-27T04:00:33.735Z,0
2017-06-27T04:01:42.725Z,0
2017-06-27T04:02:52.944Z,0
2017-06-27T04:04:02.847Z,0
2017-06-27T04:05:12.749Z,0
2017-06-27T04:06:22.973Z,0
2017-06-27T04:07:32.886Z,0
2017-06-27T04:08:43.118Z,0
2017-06-27T04:09:53.022Z,0
2017-06-27T04:11:02.927Z,0
2017-06-27T04:12:12.853Z,0
2017-06-27T04:13:22.769Z,0
2017-06-27T04:14:32.689Z,0
2017-06-27T04:15:42.600Z,0
2017-06-27T04:16:51.916Z,0
2017-06-27T04:18:01.838Z,0
2017-06-27T04:19:11.454Z,0
2017-06-27T04:20:20.743Z,0
2017-06-27T04:21:30.675Z,0
2017-06-27T04:22:40.278Z,0
2017-06-27T04:23:49.771Z,0
2017-06-27T04:24:59.723Z,0
2017-06-27T04:26:09.387Z,0
2017-06-27T04:27:19.031Z,0
2017-06-27T04:28:29.243Z,0
2017-06-27T04:29:39.227Z,0
2017-06-27T04:30:49.559Z,0
2017-06-27T04:31:59.763Z,0
2017-06-27T04:33:09.377Z,0
2017-06-27T04:34:19.614Z,0
2017-06-27T04:35:29.542Z,0
2017-06-27T04:36:39.450Z,0
2017-06-27T04:37:49.084Z,0
2017-06-27T04:38:59.305Z,0
2017-06-27T04:40:08.931Z,0
2017-06-27T04:41:18.568Z,0
2017-06-27T04:42:28.200Z,0
2017-06-27T04:43:36.894Z,0
2017-06-27T04:44:47.126Z,0
2017-06-27T04:45:57.088Z,0
2017-06-27T04:47:07.326Z,0
2017-06-27T04:48:17.247Z,0
2017-06-27T04:49:27.179Z,0
2017-06-27T04:50:37.421Z,0
2017-06-27T04:51:47.053Z,0
2017-06-27T04:52:56.949Z,0
2017-06-27T04:54:06.901Z,0
2017-06-27T04:55:16.516Z,0
2017-06-27T04:56:26.132Z,0
2017-06-27T04:57:36.077Z,0
2017-06-27T04:58:46.339Z,0
2017-06-27T04:59:56.262Z,0
2017-06-27T05:01:06.198Z,0
2017-06-27T05:02:15.810Z,0
2017-06-27T05:03:25.741Z,0
2017-06-27T05:04:35.645Z,0
2017-06-27T05:05:45.891Z,0
2017-06-27T05:06:56.143Z,0
2017-06-27T05:08:06.049Z,0
2017-06-27T05:09:15.969Z,0
2017-06-27T05:10:26.186Z,0
2017-06-27T05:11:35.802Z,0
2017-06-27T05:12:45.715Z,0
2017-06-27T05:13:55.321Z,0
2017-06-27T05:15:05.536Z,0
2017-06-27T05:16:15.813Z,0
2017-06-27T05:17:26.017Z,0
2017-06-27T05:18:36.002Z,0
2017-06-27T05:19:46.128Z,0
2017-06-27T05:20:56.029Z,0
2017-06-27T05:22:05.775Z,0
2017-06-27T05:23:16.006Z,0
2017-06-27T05:24:25.933Z,0
2017-06-27T05:25:36.083Z,0
2017-06-27T05:26:46.068Z,0
2017-06-27T05:27:55.370Z,0
2017-06-27T05:29:04.968Z,0
2017-06-27T05:30:14.596Z,0
2017-06-27T05:31:24.826Z,0
2017-06-27T05:32:35.028Z,0
2017-06-27T05:33:45.241Z,0
2017-06-27T05:34:55.459Z,0
2017-06-27T05:36:05.700Z,0
2017-06-27T05:37:15.293Z,0
2017-06-27T05:38:25.206Z,0
2017-06-27T05:39:35.119Z,0
2017-06-27T05:40:45.320Z,0
2017-06-27T05:41:54.966Z,5
2017-06-27T05:43:04.864Z,5
2017-06-27T05:44:14.454Z,5
2017-06-27T05:45:24.356Z,5
2017-06-27T05:46:34.559Z,5
2017-06-27T05:47:44.469Z,5
2017-06-27T05:48:54.063Z,5
2017-06-27T05:50:03.686Z,5
2017-06-27T05:51:13.921Z,5
2017-06-27T05:52:23.839Z,5
2017-06-27T05:53:33.759Z,5
2017-06-27T05:54:43.372Z,5
2017-06-27T05:55:52.998Z,5
2017-06-27T05:57:02.328Z,5
2017-06-27T05:58:13.224Z,10
2017-06-27T05:59:23.600Z,10
2017-06-27T06:00:33.623Z,10
2017-06-27T06:01:43.288Z,5
2017-06-27T06:02:54.155Z,5
2017-06-27T06:04:04.360Z,5
2017-06-27T06:05:13.950Z,5
2017-06-27T06:06:23.607Z,5
2017-06-27T06:07:32.912Z,5
2017-06-27T06:08:42.814Z,5
2017-06-27T06:09:52.720Z,5
2017-06-27T06:11:02.952Z,5
2017-06-27T06:12:12.554Z,5
2017-06-27T06:13:22.472Z,5
2017-06-27T06:14:32.679Z,10
2017-06-27T06:15:42.887Z,5
2017-06-27T06:16:52.804Z,5
2017-06-27T06:18:02.419Z,10
2017-06-27T06:19:12.638Z,5
2017-06-27T06:20:22.546Z,5
2017-06-27T06:21:32.161Z,5
2017-06-27T06:22:42.075Z,5
2017-06-27T06:23:52.291Z,5
2017-06-27T06:25:02.505Z,5
2017-06-27T06:26:12.414Z,5
2017-06-27T06:27:22.688Z,5
2017-06-27T06:28:32.603Z,5
2017-06-27T06:29:41.884Z,5
2017-06-27T06:30:51.805Z,5
2017-06-27T06:32:02.023Z,10
2017-06-27T06:33:12.230Z,10
2017-06-27T06:34:22.134Z,10
2017-06-27T06:35:32.341Z,10
2017-06-27T06:36:42.554Z,10
2017-06-27T06:37:52.162Z,10
2017-06-27T06:39:02.088Z,10
2017-06-27T06:40:12.028Z,10
2017-06-27T06:41:21.638Z,10
2017-06-27T06:42:31.233Z,10
2017-06-27T06:43:41.478Z,10
2017-06-27T06:44:51.405Z,10
2017-06-27T06:46:01.011Z,10
2017-06-27T06:47:10.597Z,10
2017-06-27T06:48:20.510Z,10
2017-06-27T06:49:30.411Z,10
2017-06-27T06:50:40.312Z,10
2017-06-27T06:51:50.536Z,10
2017-06-27T06:53:00.438Z,10
2017-06-27T06:54:10.652Z,10
2017-06-27T06:55:20.876Z,10
2017-06-27T06:56:31.091Z,10
2017-06-27T06:57:40.700Z,10
2017-06-27T06:58:50.916Z,10
2017-06-27T07:00:00.528Z,10
2017-06-27T07:01:10.746Z,10
2017-06-27T07:02:20.662Z,10
2017-06-27T07:03:30.872Z,15
2017-06-27T07:04:41.096Z,15
2017-06-27T07:05:50.699Z,15
2017-06-27T07:07:00.616Z,15
2017-06-27T07:08:10.540Z,15
2017-06-27T07:09:20.467Z,15
2017-06-27T07:10:30.692Z,15
2017-06-27T07:11:40.595Z,15
2017-06-27T07:12:50.822Z,15
2017-06-27T07:14:00.744Z,15
2017-06-27T07:15:10.360Z,15
2017-06-27T07:16:20.269Z,15
2017-06-27T07:17:29.872Z,15
2017-06-27T07:18:39.775Z,15
2017-06-27T07:19:49.397Z,10
2017-06-27T07:20:59.646Z,10
2017-06-27T07:22:09.866Z,10
2017-06-27T07:23:20.095Z,10
2017-06-27T07:24:29.087Z,10
2017-06-27T07:25:39.004Z,10
2017-06-27T07:26:48.666Z,15
2017-06-27T07:27:57.971Z,15
2017-06-27T07:29:07.567Z,15
2017-06-27T07:30:17.188Z,15
2017-06-27T07:31:26.497Z,15
2017-06-27T07:32:36.727Z,15
2017-06-27T07:33:46.936Z,15
2017-06-27T07:34:56.539Z,15
2017-06-27T07:36:06.794Z,15
2017-06-27T07:37:16.400Z,15
2017-06-27T07:38:25.694Z,10
2017-06-27T07:39:35.298Z,10
2017-06-27T07:40:44.915Z,10
2017-06-27T07:41:54.847Z,10
2017-06-27T07:43:04.755Z,10
2017-06-27T07:44:14.360Z,10
2017-06-27T07:45:24.269Z,10
2017-06-27T07:46:34.193Z,10
2017-06-27T07:47:44.410Z,10
2017-06-27T07:48:54.342Z,10
2017-06-27T07:50:04.251Z,10
2017-06-27T07:51:14.321Z,10
2017-06-27T07:52:24.541Z,10
2017-06-27T07:53:34.449Z,10
2017-06-27T07:54:44.397Z,10
2017-06-27T07:55:54.643Z,10
2017-06-27T07:57:04.899Z,10
2017-06-27T07:58:14.501Z,10
2017-06-27T07:59:24.734Z,10
2017-06-27T08:00:34.666Z,10
2017-06-27T08:01:44.575Z,10
2017-06-27T08:02:54.529Z,10
2017-06-27T08:04:04.782Z,10
2017-06-27T08:05:15.034Z,10
2017-06-27T08:06:24.333Z,10
2017-06-27T08:07:33.636Z,10
2017-06-27T08:08:43.863Z,10
2017-06-27T08:09:53.797Z,10
2017-06-27T08:11:04.000Z,10
2017-06-27T08:12:13.597Z,10
2017-06-27T08:13:23.203Z,10
2017-06-27T08:14:32.799Z,10
2017-06-27T08:15:42.713Z,10
2017-06-27T08:16:52.020Z,10
2017-06-27T08:18:02.239Z,10
2017-06-27T08:19:12.160Z,10
2017-06-27T08:20:22.075Z,10
2017-06-27T08:21:31.990Z,10
2017-06-27T08:22:42.199Z,10
2017-06-27T08:23:52.107Z,10
2017-06-27T08:25:02.040Z,10
2017-06-27T08:26:11.953Z,10
2017-06-27T08:27:21.554Z,10
2017-06-27T08:28:31.473Z,10
2017-06-27T08:29:41.085Z,10
2017-06-27T08:30:50.996Z,10
2017-06-27T08:32:00.902Z,10
2017-06-27T08:33:10.805Z,10
2017-06-27T08:34:20.705Z,10
2017-06-27T08:35:30.600Z,10
2017-06-27T08:36:39.596Z,10
2017-06-27T08:37:49.505Z,15
2017-06-27T08:38:59.414Z,15
2017-06-27T08:40:09.009Z,15
2017-06-27T08:41:18.926Z,15
2017-06-27T08:42:28.527Z,15
2017-06-27T08:43:38.141Z,15
2017-06-27T08:44:48.046Z,15
2017-06-27T08:45:57.642Z,15
2017-06-27T08:47:07.245Z,15
2017-06-27T08:48:17.162Z,15
2017-06-27T08:49:27.065Z,15
2017-06-27T08:50:36.714Z,15
2017-06-27T08:51:46.628Z,15
2017-06-27T08:52:56.242Z,15
2017-06-27T08:54:06.193Z,15
2017-06-27T08:55:16.428Z,15
2017-06-27T08:56:26.337Z,15
2017-06-27T08:57:35.662Z,15
2017-06-27T08:58:45.594Z,15
2017-06-27T08:59:55.502Z,15
2017-06-27T09:01:05.421Z,15
2017-06-27T09:02:14.728Z,15
2017-06-27T09:03:24.336Z,15
2017-06-27T09:04:34.244Z,15
2017-06-27T09:05:44.478Z,20
2017-06-27T09:06:54.488Z,20
2017-06-27T09:08:04.402Z,20
2017-06-27T09:09:14.340Z,20
2017-06-27T09:10:24.579Z,20
2017-06-27T09:11:34.491Z,20
2017-06-27T09:12:44.401Z,20
2017-06-27T09:13:54.633Z,20
2017-06-27T09:15:04.854Z,20
2017-06-27T09:16:14.763Z,20
2017-06-27T09:17:24.363Z,20
2017-06-27T09:18:34.331Z,20
2017-06-27T09:19:43.942Z,20
2017-06-27T09:20:54.172Z,20
2017-06-27T09:22:04.397Z,25
2017-06-27T09:23:14.306Z,25
2017-06-27T09:24:24.525Z,25
2017-06-27T09:25:34.131Z,30
2017-06-27T09:26:43.435Z,30
2017-06-27T09:27:53.676Z,35
2017-06-27T09:29:02.675Z,35
2017-06-27T09:30:12.895Z,35
2017-06-27T09:31:23.133Z,35
2017-06-27T09:32:33.034Z,35
2017-06-27T09:33:42.342Z,35
2017-06-27T09:34:51.672Z,30
2017-06-27T09:36:01.274Z,30
2017-06-27T09:37:11.183Z,25
2017-06-27T09:38:20.826Z,25
2017-06-27T09:39:30.737Z,25
2017-06-27T09:40:40.341Z,25
2017-06-27T09:41:50.240Z,25
2017-06-27T09:43:00.148Z,25
2017-06-27T09:44:10.366Z,20
2017-06-27T09:45:19.974Z,20
2017-06-27T09:46:29.874Z,25
2017-06-27T09:47:39.781Z,20
2017-06-27T09:48:49.071Z,20
2017-06-27T09:49:58.993Z,20
2017-06-27T09:51:08.615Z,15
2017-06-27T09:52:18.837Z,15
2017-06-27T09:53:28.746Z,15
2017-06-27T09:54:38.668Z,15
2017-06-27T09:55:48.581Z,15
2017-06-27T09:56:58.798Z,15
2017-06-27T09:58:08.425Z,15
2017-06-27T09:59:18.339Z,15
2017-06-27T10:00:28.008Z,15
2017-06-27T10:01:37.294Z,15
2017-06-27T10:02:47.519Z,15
2017-06-27T10:03:57.117Z,15
2017-06-27T10:05:07.028Z,20
2017-06-27T10:06:16.930Z,20
2017-06-27T10:07:26.850Z,20
2017-06-27T10:08:36.809Z,20
2017-06-27T10:09:46.746Z,20
2017-06-27T10:10:56.666Z,20
2017-06-27T10:12:06.886Z,20
2017-06-27T10:13:16.800Z,20
2017-06-27T10:14:27.013Z,15
2017-06-27T10:15:36.622Z,15
2017-06-27T10:16:46.540Z,15
2017-06-27T10:17:56.160Z,20
2017-06-27T10:19:06.071Z,20
2017-06-27T10:20:16.281Z,20
2017-06-27T10:21:25.581Z,20
2017-06-27T10:22:35.795Z,20
2017-06-27T10:23:45.712Z,20
2017-06-27T10:24:55.929Z,20
2017-06-27T10:26:05.835Z,25
2017-06-27T10:27:15.732Z,25
2017-06-27T10:28:25.628Z,25
2017-06-27T10:29:35.565Z,25
2017-06-27T10:30:45.200Z,20
2017-06-27T10:31:55.143Z,20
2017-06-27T10:33:05.060Z,20
2017-06-27T10:34:15.294Z,20
2017-06-27T10:35:25.220Z,20
2017-06-27T10:36:34.208Z,20
2017-06-27T10:37:43.520Z,20
2017-06-27T10:38:53.447Z,20
2017-06-27T10:40:03.356Z,20
2017-06-27T10:41:12.650Z,15
2017-06-27T10:42:22.255Z,15
2017-06-27T10:43:31.550Z,15
2017-06-27T10:44:40.548Z,15
2017-06-27T10:45:50.754Z,15
2017-06-27T10:47:00.963Z,15
2017-06-27T10:48:10.562Z,15
2017-06-27T10:49:20.465Z,15
2017-06-27T10:50:30.148Z,15
2017-06-27T10:51:39.447Z,15
2017-06-27T10:52:49.353Z,15
2017-06-27T10:53:59.307Z,15
2017-06-27T10:55:09.235Z,15
2017-06-27T10:56:19.163Z,15
2017-06-27T10:57:28.770Z,20
2017-06-27T10:58:38.069Z,20
2017-06-27T10:59:47.363Z,20
2017-06-27T11:00:57.579Z,20
2017-06-27T11:02:07.485Z,20
2017-06-27T11:03:17.083Z,20
2017-06-27T11:04:27.298Z,20
2017-06-27T11:05:37.219Z,15
2017-06-27T11:06:47.455Z,15
2017-06-27T11:07:57.370Z,15
2017-06-27T11:09:07.584Z,15
2017-06-27T11:10:17.190Z,15
2017-06-27T11:11:27.408Z,15
2017-06-27T11:12:37.014Z,15
2017-06-27T11:13:46.913Z,15
2017-06-27T11:14:56.520Z,15
2017-06-27T11:16:06.751Z,15
2017-06-27T11:17:16.707Z,15
2017-06-27T11:18:26.332Z,15
2017-06-27T11:19:36.260Z,10
2017-06-27T11:20:46.479Z,10
2017-06-27T11:21:55.780Z,10
2017-06-27T11:23:05.990Z,10
2017-06-27T11:24:15.897Z,10
2017-06-27T11:25:26.116Z,10
2017-06-27T11:26:36.343Z,10
2017-06-27T11:27:45.647Z,10
2017-06-27T11:28:54.937Z,10
2017-06-27T11:30:04.846Z,10
2017-06-27T11:31:14.748Z,10
2017-06-27T11:32:24.354Z,5
2017-06-27T11:33:34.276Z,5
2017-06-27T11:34:44.440Z,5
2017-06-27T11:35:54.660Z,5
2017-06-27T11:37:04.259Z,5
2017-06-27T11:38:14.186Z,5
2017-06-27T11:39:24.110Z,5
2017-06-27T11:40:33.713Z,5
2017-06-27T11:41:43.319Z,5
2017-06-27T11:42:53.238Z,5
2017-06-27T11:44:02.872Z,5
2017-06-27T11:45:13.100Z,5
2017-06-27T11:46:23.009Z,5
2017-06-27T11:47:32.303Z,5
2017-06-27T11:48:42.222Z,5
2017-06-27T11:49:52.486Z,5
2017-06-27T11:51:02.405Z,5
2017-06-27T11:52:12.325Z,5
2017-06-27T11:53:21.944Z,5
2017-06-27T11:54:31.857Z,5
2017-06-27T11:55:41.490Z,5
2017-06-27T11:56:51.094Z,5
2017-06-27T11:58:00.685Z,5
2017-06-27T11:59:10.909Z,5
2017-06-27T12:00:20.816Z,5
2017-06-27T12:01:30.419Z,5
2017-06-27T12:02:40.635Z,10
2017-06-27T12:03:50.551Z,10
2017-06-27T12:05:00.471Z,10
2017-06-27T12:06:10.681Z,10
2017-06-27T12:07:20.647Z,10
2017-06-27T12:08:29.956Z,10
2017-06-27T12:09:39.885Z,10
2017-06-27T12:10:49.178Z,15
2017-06-27T12:11:58.472Z,15
2017-06-27T12:13:08.693Z,15
2017-06-27T12:14:18.909Z,15
2017-06-27T12:15:28.513Z,15
2017-06-27T12:16:37.795Z,15
2017-06-27T12:17:47.699Z,15
2017-06-27T12:18:57.290Z,15
2017-06-27T12:20:06.906Z,15
2017-06-27T12:21:16.844Z,20
2017-06-27T12:22:26.467Z,20
2017-06-27T12:23:36.101Z,20
2017-06-27T12:24:45.095Z,20
2017-06-27T12:25:55.014Z,20
2017-06-27T12:27:04.626Z,20
2017-06-27T12:28:14.846Z,20
2017-06-27T12:29:24.749Z,20
2017-06-27T12:30:34.045Z,20
2017-06-27T12:31:43.654Z,20
2017-06-27T12:32:53.262Z,20
2017-06-27T12:34:02.867Z,20
2017-06-27T12:35:13.155Z,20
2017-06-27T12:36:23.365Z,20
2017-06-27T12:37:32.962Z,20
2017-06-27T12:38:43.176Z,20
2017-06-27T12:39:52.768Z,20
2017-06-27T12:41:02.687Z,15
2017-06-27T12:42:11.986Z,15
2017-06-27T12:43:21.283Z,15
2017-06-27T12:44:31.217Z,15
2017-06-27T12:45:41.121Z,15
2017-06-27T12:46:51.336Z,20
2017-06-27T12:48:01.250Z,20
2017-06-27T12:49:11.463Z,20
2017-06-27T12:50:21.393Z,20
2017-06-27T12:51:31.015Z,25
2017-06-27T12:52:40.927Z,25
2017-06-27T12:53:51.157Z,25
2017-06-27T12:55:00.457Z,30
2017-06-27T12:56:10.686Z,30
2017-06-27T12:57:20.607Z,30
2017-06-27T12:58:30.825Z,25
2017-06-27T12:59:41.039Z,25
2017-06-27T13:00:50.948Z,25
2017-06-27T13:02:01.166Z,25
2017-06-27T13:03:11.084Z,25
2017-06-27T13:04:20.698Z,25
2017-06-27T13:05:30.911Z,25
2017-06-27T13:06:41.128Z,25
2017-06-27T13:07:51.064Z,25
2017-06-27T13:09:00.996Z,25
2017-06-27T13:10:10.911Z,25
2017-06-27T13:11:20.524Z,25
2017-06-27T13:12:30.754Z,25
2017-06-27T13:13:40.963Z,25
2017-06-27T13:14:51.196Z,25
2017-06-27T13:16:01.427Z,25
2017-06-27T13:17:11.670Z,25
2017-06-27T13:18:21.285Z,25
2017-06-27T13:19:30.279Z,25
2017-06-27T13:20:40.181Z,25
2017-06-27T13:21:50.407Z,25
2017-06-27T13:23:00.640Z,25
2017-06-27T13:24:11.238Z,25
2017-06-27T13:25:21.247Z,25
2017-06-27T13:26:31.216Z,25
2017-06-27T13:27:41.121Z,25
2017-06-27T13:28:51.356Z,20
2017-06-27T13:30:01.355Z,20
2017-06-27T13:31:11.294Z,25
2017-06-27T13:32:21.526Z,25
2017-06-27T13:33:31.761Z,20
2017-06-27T13:34:41.702Z,20
2017-06-27T13:35:51.624Z,25
2017-06-27T13:37:01.549Z,25
2017-06-27T13:38:11.781Z,25
2017-06-27T13:39:21.709Z,20
2017-06-27T13:40:31.621Z,20
2017-06-27T13:41:41.594Z,20
2017-06-27T13:42:51.845Z,20
2017-06-27T13:44:02.075Z,20
2017-06-27T13:45:11.987Z,20
2017-06-27T13:46:21.671Z,20
2017-06-27T13:47:31.587Z,20
2017-06-27T13:48:40.599Z,15
2017-06-27T13:49:50.210Z,15
2017-06-27T13:51:00.807Z,10
2017-06-27T13:52:11.024Z,10
2017-06-27T13:53:20.677Z,10
2017-06-27T13:54:30.287Z,10
2017-06-27T13:55:40.196Z,10
2017-06-27T13:56:50.436Z,10
2017-06-27T13:58:00.366Z,10
2017-06-27T13:59:09.965Z,10
2017-06-27T14:00:19.269Z,10
2017-06-27T14:01:29.186Z,10
2017-06-27T14:02:38.810Z,10
2017-06-27T14:03:48.709Z,15
2017-06-27T14:04:58.908Z,15
2017-06-27T14:06:09.126Z,15
2017-06-27T14:07:19.343Z,15
2017-06-27T14:08:29.598Z,15
2017-06-27T14:09:39.865Z,15
2017-06-27T14:10:49.475Z,15
2017-06-27T14:11:59.445Z,10
2017-06-27T14:13:09.353Z,10
2017-06-27T14:14:19.276Z,10
2017-06-27T14:15:28.903Z,10
2017-06-27T14:16:39.142Z,10
2017-06-27T14:17:49.368Z,5
2017-06-27T14:18:59.625Z,10
2017-06-27T14:20:09.885Z,10
2017-06-27T14:21:20.142Z,10
2017-06-27T14:22:30.158Z,10
2017-06-27T14:23:40.403Z,10
2017-06-27T14:24:50.010Z,5
2017-06-27T14:26:00.256Z,10
2017-06-27T14:27:09.856Z,10
2017-06-27T14:28:19.769Z,10
2017-06-27T14:29:29.065Z,10
2017-06-27T14:30:38.686Z,10
2017-06-27T14:31:48.591Z,10
2017-06-27T14:32:58.203Z,5
2017-06-27T14:34:08.135Z,5
2017-06-27T14:35:18.359Z,5
2017-06-27T14:36:28.287Z,5
2017-06-27T14:37:37.968Z,5
2017-06-27T14:38:47.588Z,5
2017-06-27T14:39:57.572Z,5
2017-06-27T14:41:07.491Z,5
2017-06-27T14:42:18.167Z,5
2017-06-27T14:43:27.949Z,5
2017-06-27T14:44:37.274Z,5
2017-06-27T14:45:47.700Z,5
2017-06-27T14:46:57.934Z,5
2017-06-27T14:48:08.161Z,5
2017-06-27T14:49:18.069Z,5
2017-06-27T14:50:27.804Z,5
2017-06-27T14:51:37.414Z,5
2017-06-27T14:52:47.661Z,5
2017-06-27T14:53:57.819Z,5
2017-06-27T14:55:07.728Z,5
2017-06-27T14:56:18.136Z,5
2017-06-27T14:57:28.037Z,5
2017-06-27T14:58:37.335Z,5
2017-06-27T14:59:47.562Z,5
2017-06-27T15:00:57.481Z,5
2017-06-27T15:02:07.423Z,5
2017-06-27T15:03:17.645Z,5
2017-06-27T15:04:27.247Z,5
2017-06-27T15:05:36.544Z,5
2017-06-27T15:06:46.160Z,5
2017-06-27T15:07:56.385Z,5
2017-06-27T15:09:06.333Z,5
2017-06-27T15:10:15.936Z,5
2017-06-27T15:11:25.858Z,5
2017-06-27T15:12:35.764Z,5
2017-06-27T15:13:45.342Z,5
2017-06-27T15:14:55.571Z,10
2017-06-27T15:16:05.908Z,10
2017-06-27T15:17:15.535Z,10
2017-06-27T15:18:25.150Z,10
2017-06-27T15:19:34.754Z,10
2017-06-27T15:20:44.698Z,10
2017-06-27T15:21:54.605Z,5
2017-06-27T15:23:04.810Z,5
2017-06-27T15:24:15.027Z,5
2017-06-27T15:25:24.626Z,5
2017-06-27T15:26:34.538Z,5
2017-06-27T15:27:44.443Z,5
2017-06-27T15:28:54.358Z,10
2017-06-27T15:30:03.963Z,10
2017-06-27T15:31:14.180Z,10
2017-06-27T15:32:23.825Z,10
2017-06-27T15:33:33.771Z,10
2017-06-27T15:34:43.706Z,10
2017-06-27T15:35:54.366Z,10
2017-06-27T15:37:04.307Z,10
2017-06-27T15:38:14.221Z,10
2017-06-27T15:39:23.858Z,10
2017-06-27T15:40:32.893Z,15
2017-06-27T15:41:43.116Z,15
2017-06-27T15:42:53.085Z,15
2017-06-27T15:44:03.045Z,15
2017-06-27T15:45:13.275Z,15
2017-06-27T15:46:22.890Z,15
2017-06-27T15:47:32.789Z,15
2017-06-27T15:48:42.385Z,15
2017-06-27T15:49:52.378Z,15
2017-06-27T15:51:02.618Z,15
2017-06-27T15:52:12.556Z,15
2017-06-27T15:53:22.473Z,20
2017-06-27T15:54:32.390Z,20
2017-06-27T15:55:42.333Z,20
2017-06-27T15:56:52.008Z,20
2017-06-27T15:58:01.944Z,20
2017-06-27T15:59:11.871Z,20
2017-06-27T16:00:21.803Z,20
2017-06-27T16:01:31.729Z,20
2017-06-27T16:02:41.646Z,20
2017-06-27T16:03:51.278Z,15
2017-06-27T16:05:01.176Z,15
2017-06-27T16:06:11.448Z,15
2017-06-27T16:07:21.725Z,15
2017-06-27T16:08:31.642Z,15
2017-06-27T16:09:41.572Z,15
2017-06-27T16:10:51.224Z,15
2017-06-27T16:12:01.473Z,15
2017-06-27T16:13:11.401Z,15
2017-06-27T16:14:21.083Z,10
2017-06-27T16:15:31.003Z,10
2017-06-27T16:16:40.901Z,10
2017-06-27T16:17:50.827Z,10
2017-06-27T16:19:00.430Z,10
2017-06-27T16:20:10.367Z,10
2017-06-27T16:21:20.000Z,10
2017-06-27T16:22:30.222Z,10
2017-06-27T16:23:40.128Z,10
2017-06-27T16:24:50.039Z,10
2017-06-27T16:25:59.711Z,10
2017-06-27T16:27:09.918Z,10
2017-06-27T16:28:20.133Z,10
2017-06-27T16:29:29.740Z,10
2017-06-27T16:30:39.371Z,10
2017-06-27T16:31:49.313Z,10
2017-06-27T16:32:58.299Z,10
2017-06-27T16:34:08.532Z,10
2017-06-27T16:35:18.145Z,10
2017-06-27T16:36:27.763Z,10
2017-06-27T16:37:37.688Z,10
2017-06-27T16:38:47.301Z,10
2017-06-27T16:39:57.514Z,10
2017-06-27T16:41:07.725Z,10
2017-06-27T16:42:18.206Z,10
2017-06-27T16:43:28.811Z,10
2017-06-27T16:44:39.119Z,10
2017-06-27T16:45:48.724Z,10
2017-06-27T16:46:58.875Z,10
2017-06-27T16:48:08.276Z,10
2017-06-27T16:49:17.995Z,10
2017-06-27T16:50:28.213Z,10
2017-06-27T16:51:38.122Z,10
2017-06-27T16:52:48.500Z,10
2017-06-27T16:53:58.106Z,5
2017-06-27T16:55:08.007Z,5
2017-06-27T16:56:17.598Z,5
2017-06-27T16:57:27.506Z,5
2017-06-27T16:58:37.311Z,5
2017-06-27T16:59:47.224Z,5